createdAt,value
2018-05-09T06:55:36.197Z,47.10
2018-05-09T06:58:03.653Z,47.70
2018-05-09T07:00:31.319Z,47.80
2018-05-09T07:02:58.758Z,49.60
2018-05-09T07:05:26.240Z,48.40
2018-05-09T07:07:53.700Z,46.60
2018-05-09T07:10:21.247Z,45.70
2018-05-09T07:12:48.724Z,46.30
2018-05-09T07:15:16.176Z,47.60
2018-05-09T07:17:43.731Z,47.60
2018-05-09T07:20:11.279Z,46.60
2018-05-09T07:22:38.951Z,45.90
2018-05-09T07:25:06.395Z,46.20
2018-05-09T07:27:33.871Z,47.10
2018-05-09T07:30:01.372Z,48.20
2018-05-09T07:32:28.859Z,45.70
2018-05-09T07:34:56.414Z,46.00
2018-05-09T07:37:23.966Z,46.10
2018-05-09T07:39:54.989Z,44.80
2018-05-09T07:42:22.470Z,44.70
2018-05-09T07:44:49.935Z,43.70
2018-05-09T07:47:17.488Z,44.30
2018-05-09T07:49:45.339Z,42.70
2018-05-09T07:52:12.831Z,41.30
2018-05-09T07:54:41.063Z,42.20
2018-05-09T07:57:08.631Z,41.60
2018-05-09T07:59:36.121Z,42.70
2018-05-09T08:02:04.368Z,43.50
2018-05-09T08:04:31.813Z,42.80
2018-05-09T08:06:59.271Z,42.40
2018-05-09T08:09:27.753Z,40.00
2018-05-09T08:11:55.242Z,39.80
2018-05-09T08:14:23.542Z,40.50
2018-05-09T08:16:51.888Z,38.90
2018-05-09T08:19:19.428Z,38.70
2018-05-09T08:21:46.973Z,43.60
2018-05-09T08:24:14.429Z,40.80
2018-05-09T08:26:41.978Z,39.40
2018-05-09T08:29:09.437Z,42.50
2018-05-09T08:31:36.897Z,41.10
2018-05-09T08:34:04.454Z,40.10
2018-05-09T08:36:31.995Z,39.80
2018-05-09T08:38:59.361Z,38.50
2018-05-09T08:41:26.974Z,38.40
2018-05-09T08:43:55.281Z,35.50
2018-05-09T08:46:22.647Z,35.40
2018-05-09T08:48:50.104Z,38.10
2018-05-09T08:51:17.567Z,35.70
2018-05-09T08:53:45.123Z,37.20
2018-05-09T08:56:12.591Z,35.70
2018-05-09T08:58:40.117Z,35.90
2018-05-09T09:01:07.594Z,36.60
2018-05-09T09:03:36.027Z,35.80
2018-05-09T09:06:03.538Z,36.50
2018-05-09T09:08:30.999Z,37.00
2018-05-09T09:10:58.621Z,34.60
2018-05-09T09:13:26.069Z,34.90
2018-05-09T09:15:53.662Z,38.40
2018-05-09T09:18:21.223Z,36.30
2018-05-09T09:20:48.699Z,35.80
2018-05-09T09:23:16.151Z,35.60
2018-05-09T09:25:43.608Z,35.10
2018-05-09T09:28:11.134Z,34.00
2018-05-09T09:30:38.690Z,35.00
2018-05-09T09:33:06.138Z,36.40
2018-05-09T09:35:33.591Z,34.70
2018-05-09T09:38:01.071Z,34.00
2018-05-09T09:40:28.624Z,33.00
2018-05-09T09:42:56.198Z,32.00
2018-05-09T09:45:25.150Z,32.00
2018-05-09T09:47:52.614Z,32.00
2018-05-09T09:50:20.068Z,33.20
2018-05-09T09:52:48.570Z,33.20
2018-05-09T09:55:16.032Z,31.40
2018-05-09T09:57:43.474Z,32.20
2018-05-09T10:00:10.939Z,31.70
2018-05-09T10:02:38.384Z,30.10
2018-05-09T10:05:05.939Z,32.30
2018-05-09T10:07:33.386Z,29.80
2018-05-09T10:10:01.122Z,30.60
2018-05-09T10:12:28.775Z,33.60
2018-05-09T10:14:56.292Z,30.10
2018-05-09T10:17:23.854Z,33.00
2018-05-09T10:19:52.103Z,30.70
2018-05-09T10:22:19.978Z,30.70
2018-05-09T10:24:47.431Z,32.10
2018-05-09T10:27:14.999Z,30.20
2018-05-09T10:29:42.464Z,33.20
2018-05-09T10:32:10.862Z,30.90
2018-05-09T10:34:38.317Z,31.00
2018-05-09T10:37:06.586Z,29.60
2018-05-09T10:39:34.831Z,30.40
2018-05-09T10:42:03.109Z,30.10
2018-05-09T10:44:30.547Z,30.10
2018-05-09T10:46:58.014Z,29.90
2018-05-09T10:49:25.563Z,28.90
2018-05-09T10:51:53.115Z,30.00
2018-05-09T10:54:20.569Z,28.10
2018-05-09T10:56:48.194Z,30.00
2018-05-09T10:59:15.635Z,29.10
2018-05-09T11:01:43.147Z,30.20
2018-05-09T11:04:11.786Z,28.50
2018-05-09T11:06:40.206Z,28.60
2018-05-09T11:09:11.247Z,28.60
2018-05-09T11:11:38.889Z,28.70
2018-05-09T11:14:06.380Z,27.80
2018-05-09T11:16:33.843Z,30.00
2018-05-09T11:19:04.420Z,28.60
2018-05-09T11:21:31.875Z,28.90
2018-05-09T11:23:59.326Z,29.70
2018-05-09T11:26:26.849Z,29.60
2018-05-09T11:28:55.182Z,29.00
2018-05-09T11:31:22.634Z,29.00
2018-05-09T11:33:51.083Z,30.00
2018-05-09T11:36:18.607Z,26.80
2018-05-09T11:38:46.820Z,27.30
2018-05-09T11:41:14.292Z,27.30
2018-05-09T11:43:42.806Z,27.70
2018-05-09T11:46:10.379Z,27.50
2018-05-09T11:48:37.839Z,28.00
2018-05-09T11:51:06.049Z,27.80
2018-05-09T11:53:34.186Z,27.80
2018-05-09T11:56:02.394Z,28.30
2018-05-09T11:58:29.854Z,28.30
2018-05-09T12:00:57.327Z,28.70
2018-05-09T12:03:25.848Z,28.80
2018-05-09T12:05:54.058Z,29.80
2018-05-09T12:08:21.714Z,29.80
2018-05-09T12:10:49.280Z,30.40
2018-05-09T12:13:16.778Z,29.40
2018-05-09T12:15:44.301Z,29.30
2018-05-09T12:18:11.823Z,29.30
2018-05-09T12:20:39.291Z,28.50
2018-05-09T12:23:06.788Z,29.30
2018-05-09T12:25:34.290Z,29.30
2018-05-09T12:28:01.759Z,27.90
2018-05-09T12:30:31.191Z,29.00
2018-05-09T12:32:59.672Z,28.70
2018-05-09T12:35:27.141Z,27.50
2018-05-09T12:37:54.683Z,28.10
2018-05-09T12:40:22.244Z,27.80
2018-05-09T12:42:49.700Z,28.00
2018-05-09T12:45:18.083Z,27.70
2018-05-09T12:47:45.701Z,28.00
2018-05-09T12:50:13.152Z,28.00
2018-05-09T12:52:40.718Z,29.10
2018-05-09T12:55:09.148Z,28.20
2018-05-09T12:57:37.508Z,27.60
2018-05-09T13:00:04.994Z,27.60
2018-05-09T13:02:32.825Z,28.80
2018-05-09T13:05:00.275Z,28.20
2018-05-09T13:07:27.906Z,27.40
2018-05-09T13:09:55.390Z,27.60
2018-05-09T13:12:22.850Z,26.30
2018-05-09T13:14:50.300Z,26.10
2018-05-09T13:17:17.852Z,28.80
2018-05-09T13:19:45.550Z,27.50
2018-05-09T13:22:13.073Z,26.10
2018-05-09T13:24:40.550Z,26.70
2018-05-09T13:27:08.236Z,27.60
2018-05-09T13:29:36.487Z,29.30
2018-05-09T13:32:06.037Z,29.30
2018-05-09T13:34:34.540Z,28.70
2018-05-09T13:37:02.016Z,29.60
2018-05-09T13:39:29.566Z,29.50
2018-05-09T13:41:57.034Z,30.00
2018-05-09T13:44:25.302Z,29.90
2018-05-09T13:46:53.158Z,29.90
2018-05-09T13:49:22.510Z,29.70
2018-05-09T13:51:49.969Z,28.60
2018-05-09T13:54:17.448Z,28.90
2018-05-09T13:56:45.274Z,28.00
2018-05-09T13:59:13.575Z,29.60
2018-05-09T14:01:41.077Z,29.60
2018-05-09T14:04:12.846Z,31.00
2018-05-09T14:06:43.506Z,28.40
2018-05-09T14:09:10.967Z,28.70
2018-05-09T14:11:38.407Z,27.80
2018-05-09T14:14:07.605Z,28.70
2018-05-09T14:16:35.061Z,28.70
2018-05-09T14:19:02.519Z,28.80
2018-05-09T14:21:30.001Z,28.90
2018-05-09T14:23:57.442Z,28.40
2018-05-09T14:26:25.871Z,27.40
2018-05-09T14:28:54.340Z,27.40
2018-05-09T14:31:22.228Z,26.80
2018-05-09T14:33:50.046Z,27.40
2018-05-09T14:36:17.499Z,27.40
2018-05-09T14:38:44.992Z,27.20
2018-05-09T14:41:13.199Z,28.20
2018-05-09T14:43:41.033Z,28.20
2018-05-09T14:46:09.485Z,28.70
2018-05-09T14:48:36.930Z,26.40
2018-05-09T14:51:05.322Z,25.90
2018-05-09T14:53:32.779Z,25.00
2018-05-09T14:56:00.236Z,26.10
2018-05-09T14:58:27.685Z,27.90
2018-05-09T15:00:57.058Z,27.60
2018-05-09T15:03:24.909Z,27.70
2018-05-09T15:05:52.425Z,28.30
2018-05-09T15:08:19.874Z,28.80
2018-05-09T15:10:47.357Z,29.30
2018-05-09T15:13:15.570Z,29.60
2018-05-09T15:15:43.028Z,29.60
2018-05-09T15:18:10.476Z,30.10
2018-05-09T15:20:38.850Z,30.90
2018-05-09T15:23:06.348Z,30.20
2018-05-09T15:25:33.892Z,30.60
2018-05-09T15:28:01.363Z,30.00
2018-05-09T15:30:30.960Z,32.30
2018-05-09T15:32:59.739Z,32.20
2018-05-09T15:35:27.221Z,32.40
2018-05-09T15:37:54.660Z,32.70
2018-05-09T15:40:32.862Z,31.80
2018-05-09T15:43:00.422Z,32.10
2018-05-09T15:45:31.330Z,32.30
2018-05-09T15:47:58.803Z,32.50
2018-05-09T15:50:26.259Z,34.50
2018-05-09T15:52:53.735Z,33.50
2018-05-09T15:55:21.192Z,34.40
2018-05-09T15:57:48.760Z,33.30
2018-05-09T16:00:16.403Z,33.20
2018-05-09T16:02:43.852Z,32.40
2018-05-09T16:05:11.308Z,32.40
2018-05-09T16:07:39.045Z,33.10
2018-05-09T16:10:06.545Z,35.30
2018-05-09T16:12:34.095Z,31.10
2018-05-09T16:15:01.646Z,34.70
2018-05-09T16:17:29.082Z,30.80
2018-05-09T16:19:57.591Z,31.10
2018-05-09T16:22:25.093Z,30.20
2018-05-09T16:24:52.607Z,33.00
2018-05-09T16:27:20.160Z,31.20
2018-05-09T16:29:49.647Z,38.50
2018-05-09T16:32:18.142Z,36.90
2018-05-09T16:34:45.586Z,41.00
2018-05-09T16:37:13.406Z,33.30
2018-05-09T16:39:40.879Z,32.40
2018-05-09T16:42:08.696Z,33.00
2018-05-09T16:44:37.097Z,32.70
2018-05-09T16:47:04.601Z,32.20
2018-05-09T16:49:32.603Z,32.90
2018-05-09T16:52:00.029Z,33.90
2018-05-09T16:54:27.496Z,33.80
2018-05-09T16:56:54.950Z,32.80
2018-05-09T16:59:23.388Z,33.60
2018-05-09T17:01:50.878Z,34.60
2018-05-09T17:04:18.347Z,34.70
2018-05-09T17:06:46.820Z,35.60
2018-05-09T17:09:14.293Z,35.00
2018-05-09T17:11:42.539Z,36.90
2018-05-09T17:14:09.997Z,36.40
2018-05-09T17:16:37.774Z,36.80
2018-05-09T17:19:05.335Z,37.20
2018-05-09T17:21:45.597Z,37.40
2018-05-09T17:24:13.828Z,37.90
2018-05-09T17:26:41.271Z,37.90
2018-05-09T17:29:08.860Z,38.70
2018-05-09T17:31:36.320Z,39.00
2018-05-09T17:34:03.769Z,39.90
2018-05-09T17:36:31.229Z,39.50
2018-05-09T17:38:58.661Z,39.40
2018-05-09T17:41:26.145Z,39.50
2018-05-09T17:43:53.578Z,40.10
2018-05-09T17:46:21.162Z,40.40
2018-05-09T17:48:49.569Z,41.50
2018-05-09T17:51:18.766Z,42.80
2018-05-09T17:53:46.282Z,42.80
2018-05-09T17:56:13.740Z,43.90
2018-05-09T17:58:42.264Z,42.70
2018-05-09T18:01:09.681Z,42.70
2018-05-09T18:03:37.159Z,43.40
2018-05-09T18:06:05.368Z,45.70
2018-05-09T18:08:34.746Z,45.60
2018-05-09T18:11:02.223Z,45.90
2018-05-09T18:13:29.659Z,46.20
2018-05-09T18:15:57.131Z,46.50
2018-05-09T18:18:24.575Z,47.90
2018-05-09T18:20:52.018Z,48.00
2018-05-09T18:23:19.486Z,49.80
2018-05-09T18:25:46.959Z,50.30
2018-05-09T18:28:14.437Z,50.60
2018-05-09T18:30:41.893Z,50.90
2018-05-09T18:33:09.345Z,51.40
2018-05-09T18:35:36.905Z,51.80
2018-05-09T18:38:04.360Z,52.20
2018-05-09T18:40:31.812Z,52.60
2018-05-09T18:42:59.311Z,52.30
2018-05-09T18:45:27.525Z,53.30
2018-05-09T18:47:55.328Z,53.10
2018-05-09T18:50:22.775Z,53.80
2018-05-09T18:52:50.232Z,54.60
2018-05-09T18:55:17.777Z,55.40
2018-05-09T18:57:45.234Z,56.10
2018-05-09T19:00:12.793Z,56.60
2018-05-09T19:02:40.237Z,55.80
2018-05-09T19:05:07.713Z,55.90
2018-05-09T19:07:37.098Z,56.20
2018-05-09T19:10:04.545Z,57.10
2018-05-09T19:12:32.006Z,56.80
2018-05-09T19:14:59.472Z,56.80
2018-05-09T19:17:27.253Z,58.50
2018-05-09T19:19:54.688Z,58.00
2018-05-09T19:22:24.161Z,56.60
2018-05-09T19:24:51.649Z,56.70
2018-05-09T19:27:20.125Z,56.00
2018-05-09T19:29:47.690Z,56.00
2018-05-09T19:32:15.426Z,54.50
2018-05-09T19:34:42.909Z,56.20
2018-05-09T19:37:10.475Z,55.20
2018-05-09T19:39:38.022Z,56.70
2018-05-09T19:42:05.797Z,56.50
2018-05-09T19:44:36.268Z,57.60
2018-05-09T19:47:03.723Z,57.00
2018-05-09T19:49:31.186Z,57.90
2018-05-09T19:51:58.645Z,56.40
2018-05-09T19:54:26.182Z,55.40
2018-05-09T19:56:54.437Z,55.00
2018-05-09T19:59:21.958Z,54.80
2018-05-09T20:01:50.074Z,54.80
2018-05-09T20:04:18.646Z,56.00
2018-05-09T20:06:46.928Z,56.30
2018-05-09T20:09:16.138Z,55.90
2018-05-09T20:11:43.611Z,55.80
2018-05-09T20:14:11.098Z,56.20
2018-05-09T20:16:38.710Z,56.80
2018-05-09T20:19:06.931Z,56.20
2018-05-09T20:21:34.391Z,56.20
2018-05-09T20:24:01.932Z,56.70
2018-05-09T20:26:29.410Z,56.80
2018-05-09T20:29:02.008Z,57.50
2018-05-09T20:31:47.115Z,57.00
2018-05-09T20:34:17.806Z,57.20
2018-05-09T20:36:46.040Z,56.70
2018-05-09T20:39:14.431Z,56.70
2018-05-09T20:41:42.111Z,57.00
2018-05-09T20:44:09.649Z,56.90
2018-05-09T20:46:37.219Z,57.20
2018-05-09T20:49:04.675Z,57.30
2018-05-09T20:51:44.144Z,57.70
2018-05-09T20:54:12.409Z,57.70
2018-05-09T20:56:40.638Z,58.90
2018-05-09T20:59:08.122Z,58.60
2018-05-09T21:01:47.655Z,59.20
2018-05-09T21:04:15.218Z,59.30
2018-05-09T21:06:42.765Z,59.70
